BOX914 EDDP-EDDF
Flight info
| Callsign | BOX914 |
|---|---|
| Flight time | 0h 47m |
| Altitude | 22000 |
| Route | ORTAG5E/08R ORTAG T177 ODIPI/N0419F210 T157 KERAX KERAX5A |
| Aircraft | B77L/H-SDE1E2E3FGHIJ2J3J4J5M1RWXY/LB1D1 |
Departure
| Time | 2026-05-07 18:39 |
|---|---|
| Airport | Leipzig/Halle Airport (EDDP) |
Arrival
| Time | 2026-05-07 19:27 |
|---|---|
| Airport | Frankfurt Main Airport (EDDF) |
| Time | Latitude | Longitude | Altitude | Speed | Heading |
|---|---|---|---|---|---|
| 2026-05-07 18:19 | 51.41008 | 12.24798 | 472 ft | 0 kts | 85° |
| 2026-05-07 18:25 | 51.41008 | 12.24797 | 474 ft | 1 kts | 85° |
| 2026-05-07 18:26 | 51.41007 | 12.24786 | 474 ft | 2 kts | 85° |
| 2026-05-07 18:26 | 51.41006 | 12.24767 | 468 ft | 2 kts | 85° |
| 2026-05-07 18:26 | 51.41005 | 12.24749 | 471 ft | 2 kts | 85° |
| 2026-05-07 18:26 | 51.41004 | 12.24726 | 466 ft | 2 kts | 71° |
| 2026-05-07 18:27 | 51.40997 | 12.24702 | 467 ft | 2 kts | 62° |
| 2026-05-07 18:27 | 51.40986 | 12.24681 | 467 ft | 2 kts | 31° |
| 2026-05-07 18:27 | 51.40971 | 12.24669 | 466 ft | 3 kts | 23° |
| 2026-05-07 18:27 | 51.40959 | 12.24661 | 466 ft | 3 kts | 6° |
| 2026-05-07 18:28 | 51.40954 | 12.24660 | 467 ft | 0 kts | 356° |
| 2026-05-07 18:31 | 51.40958 | 12.24659 | 467 ft | 4 kts | 356° |
| 2026-05-07 18:31 | 51.41012 | 12.24653 | 470 ft | 9 kts | 356° |
| 2026-05-07 18:31 | 51.41074 | 12.24635 | 468 ft | 9 kts | 332° |
| 2026-05-07 18:32 | 51.41111 | 12.24591 | 469 ft | 0 kts | 334° |
| 2026-05-07 18:32 | 51.41113 | 12.24587 | 468 ft | 1 kts | 321° |
| 2026-05-07 18:32 | 51.41115 | 12.24577 | 466 ft | 1 kts | 287° |
| 2026-05-07 18:33 | 51.41104 | 12.24544 | 468 ft | 11 kts | 238° |
| 2026-05-07 18:33 | 51.41082 | 12.24341 | 470 ft | 25 kts | 265° |
| 2026-05-07 18:33 | 51.41067 | 12.24007 | 470 ft | 35 kts | 266° |
| 2026-05-07 18:33 | 51.41050 | 12.23641 | 475 ft | 27 kts | 265° |
| 2026-05-07 18:34 | 51.41036 | 12.23338 | 470 ft | 27 kts | 265° |
| 2026-05-07 18:34 | 51.41022 | 12.23035 | 470 ft | 27 kts | 265° |
| 2026-05-07 18:34 | 51.41007 | 12.22732 | 467 ft | 27 kts | 265° |
| 2026-05-07 18:34 | 51.40994 | 12.22439 | 462 ft | 20 kts | 266° |
| 2026-05-07 18:35 | 51.41045 | 12.22305 | 461 ft | 15 kts | 325° |
| 2026-05-07 18:35 | 51.41069 | 12.22150 | 461 ft | 15 kts | 266° |
| 2026-05-07 18:35 | 51.41057 | 12.21940 | 461 ft | 23 kts | 265° |
| 2026-05-07 18:35 | 51.41046 | 12.21678 | 462 ft | 24 kts | 265° |
| 2026-05-07 18:36 | 51.41034 | 12.21420 | 457 ft | 24 kts | 265° |
| 2026-05-07 18:36 | 51.41021 | 12.21158 | 452 ft | 24 kts | 266° |
| 2026-05-07 18:36 | 51.41009 | 12.20887 | 444 ft | 25 kts | 266° |
| 2026-05-07 18:36 | 51.40996 | 12.20627 | 433 ft | 15 kts | 265° |
| 2026-05-07 18:37 | 51.41016 | 12.20502 | 431 ft | 7 kts | 317° |
| 2026-05-07 18:37 | 51.41046 | 12.20490 | 431 ft | 0 kts | 4° |
| 2026-05-07 18:38 | 51.41050 | 12.20491 | 440 ft | 3 kts | 6° |
| 2026-05-07 18:38 | 51.41107 | 12.20512 | 439 ft | 13 kts | 17° |
| 2026-05-07 18:38 | 51.41172 | 12.20667 | 432 ft | 23 kts | 85° |
| 2026-05-07 18:39 | 51.41183 | 12.20937 | 448 ft | 62 kts | 86° |
| 2026-05-07 18:39 | 51.41240 | 12.22175 | 461 ft | 157 kts | 85° |
| 2026-05-07 18:39 | 51.41324 | 12.24156 | 1001 ft | 188 kts | 84° |
| 2026-05-07 18:39 | 51.41442 | 12.26986 | 2441 ft | 194 kts | 83° |
| 2026-05-07 18:40 | 51.41532 | 12.28463 | 3152 ft | 199 kts | 83° |
| 2026-05-07 18:40 | 51.41679 | 12.30609 | 4382 ft | 193 kts | 82° |
| 2026-05-07 18:40 | 51.41839 | 12.32885 | 4982 ft | 227 kts | 83° |
| 2026-05-07 18:40 | 51.42014 | 12.35746 | 4745 ft | 290 kts | 82° |
| 2026-05-07 18:41 | 51.42367 | 12.38910 | 5258 ft | 270 kts | 76° |
| 2026-05-07 18:41 | 51.43025 | 12.41469 | 5556 ft | 239 kts | 50° |
| 2026-05-07 18:41 | 51.44407 | 12.42831 | 5672 ft | 240 kts | 12° |
| 2026-05-07 18:41 | 51.46103 | 12.42706 | 6483 ft | 254 kts | 350° |
| 2026-05-07 18:42 | 51.47849 | 12.42022 | 6985 ft | 259 kts | 346° |
| 2026-05-07 18:42 | 51.49608 | 12.41239 | 7041 ft | 265 kts | 345° |
| 2026-05-07 18:42 | 51.51389 | 12.40453 | 7031 ft | 264 kts | 346° |
| 2026-05-07 18:42 | 51.53124 | 12.39700 | 7036 ft | 260 kts | 346° |
| 2026-05-07 18:43 | 51.54871 | 12.38942 | 7209 ft | 260 kts | 343° |
| 2026-05-07 18:43 | 51.56448 | 12.37468 | 8089 ft | 272 kts | 315° |
| 2026-05-07 18:43 | 51.57455 | 12.34863 | 9200 ft | 279 kts | 291° |
| 2026-05-07 18:43 | 51.58079 | 12.31848 | 10224 ft | 288 kts | 289° |
| 2026-05-07 18:44 | 51.58729 | 12.28742 | 11219 ft | 298 kts | 290° |
| 2026-05-07 18:44 | 51.59408 | 12.25543 | 12309 ft | 306 kts | 290° |
| 2026-05-07 18:44 | 51.60107 | 12.22272 | 13410 ft | 313 kts | 290° |
| 2026-05-07 18:44 | 51.61133 | 12.19089 | 13814 ft | 337 kts | 311° |
| 2026-05-07 18:45 | 51.63029 | 12.16668 | 14070 ft | 363 kts | 329° |
| 2026-05-07 18:45 | 51.65278 | 12.14530 | 14672 ft | 381 kts | 329° |
| 2026-05-07 18:45 | 51.67515 | 12.12168 | 15441 ft | 388 kts | 321° |
| 2026-05-07 18:45 | 51.69168 | 12.08734 | 16253 ft | 402 kts | 296° |
| 2026-05-07 18:46 | 51.69931 | 12.04385 | 17419 ft | 407 kts | 277° |
| 2026-05-07 18:46 | 51.69910 | 11.99807 | 18539 ft | 412 kts | 263° |
| 2026-05-07 18:46 | 51.69174 | 11.95321 | 19430 ft | 417 kts | 250° |
| 2026-05-07 18:46 | 51.68034 | 11.90974 | 20242 ft | 424 kts | 247° |
| 2026-05-07 18:47 | 51.66800 | 11.86632 | 21130 ft | 429 kts | 246° |
| 2026-05-07 18:47 | 51.65531 | 11.82253 | 21956 ft | 434 kts | 246° |
| 2026-05-07 18:47 | 51.64254 | 11.77823 | 22118 ft | 438 kts | 246° |
| 2026-05-07 18:47 | 51.62989 | 11.73377 | 22099 ft | 436 kts | 246° |
| 2026-05-07 18:48 | 51.61742 | 11.68936 | 22097 ft | 435 kts | 247° |
| 2026-05-07 18:48 | 51.60498 | 11.64469 | 22093 ft | 435 kts | 247° |
| 2026-05-07 18:48 | 51.59273 | 11.60048 | 22096 ft | 431 kts | 247° |
| 2026-05-07 18:48 | 51.58058 | 11.55664 | 22093 ft | 428 kts | 247° |
| 2026-05-07 18:49 | 51.56863 | 11.51351 | 22102 ft | 427 kts | 247° |
| 2026-05-07 18:49 | 51.55653 | 11.46991 | 22101 ft | 426 kts | 247° |
| 2026-05-07 18:49 | 51.54441 | 11.42637 | 22097 ft | 427 kts | 246° |
| 2026-05-07 18:49 | 51.53226 | 11.38280 | 22105 ft | 428 kts | 246° |
| 2026-05-07 18:50 | 51.52002 | 11.33897 | 22101 ft | 430 kts | 246° |
| 2026-05-07 18:50 | 51.50773 | 11.29509 | 22098 ft | 431 kts | 246° |
| 2026-05-07 18:50 | 51.49543 | 11.25125 | 22088 ft | 432 kts | 246° |
| 2026-05-07 18:50 | 51.48306 | 11.20715 | 22100 ft | 433 kts | 247° |
| 2026-05-07 18:51 | 51.47066 | 11.16304 | 22100 ft | 433 kts | 246° |
| 2026-05-07 18:51 | 51.45808 | 11.11913 | 22097 ft | 434 kts | 245° |
| 2026-05-07 18:51 | 51.44517 | 11.07539 | 22097 ft | 431 kts | 245° |
| 2026-05-07 18:51 | 51.43265 | 11.03274 | 22093 ft | 425 kts | 245° |
| 2026-05-07 18:52 | 51.42010 | 10.98931 | 22095 ft | 425 kts | 246° |
| 2026-05-07 18:52 | 51.40782 | 10.94623 | 22103 ft | 426 kts | 246° |
| 2026-05-07 18:52 | 51.39572 | 10.90349 | 22100 ft | 427 kts | 246° |
| 2026-05-07 18:52 | 51.38348 | 10.86013 | 22105 ft | 428 kts | 246° |
| 2026-05-07 18:53 | 51.37025 | 10.81747 | 22089 ft | 429 kts | 240° |
| 2026-05-07 18:53 | 51.35371 | 10.77779 | 22102 ft | 429 kts | 234° |
| 2026-05-07 18:53 | 51.33450 | 10.74129 | 22102 ft | 429 kts | 227° |
| 2026-05-07 18:53 | 51.31372 | 10.70701 | 22093 ft | 429 kts | 226° |
| 2026-05-07 18:54 | 51.29287 | 10.67280 | 22090 ft | 429 kts | 226° |
| 2026-05-07 18:54 | 51.27204 | 10.63859 | 22101 ft | 429 kts | 226° |
| 2026-05-07 18:54 | 51.25125 | 10.60437 | 22099 ft | 429 kts | 227° |
| 2026-05-07 18:54 | 51.23051 | 10.57015 | 22091 ft | 429 kts | 227° |
| 2026-05-07 18:55 | 51.20981 | 10.53596 | 22096 ft | 429 kts | 227° |
| 2026-05-07 18:55 | 51.18905 | 10.50167 | 22091 ft | 429 kts | 227° |
| 2026-05-07 18:55 | 51.16836 | 10.46749 | 22088 ft | 429 kts | 227° |
| 2026-05-07 18:55 | 51.14786 | 10.43368 | 22088 ft | 428 kts | 227° |
| 2026-05-07 18:56 | 51.12708 | 10.39945 | 22092 ft | 428 kts | 227° |
| 2026-05-07 18:56 | 51.10636 | 10.36535 | 22084 ft | 428 kts | 227° |
| 2026-05-07 18:56 | 51.08561 | 10.33127 | 22089 ft | 428 kts | 226° |
| 2026-05-07 18:56 | 51.06487 | 10.29724 | 22086 ft | 428 kts | 226° |
| 2026-05-07 18:57 | 51.04414 | 10.26327 | 22094 ft | 428 kts | 226° |
| 2026-05-07 18:57 | 51.02340 | 10.22934 | 22089 ft | 428 kts | 226° |
| 2026-05-07 18:57 | 51.00262 | 10.19539 | 22091 ft | 428 kts | 226° |
| 2026-05-07 18:57 | 50.98184 | 10.16149 | 22094 ft | 428 kts | 226° |
| 2026-05-07 18:58 | 50.96108 | 10.12765 | 22092 ft | 428 kts | 226° |
| 2026-05-07 18:58 | 50.94050 | 10.09416 | 22096 ft | 428 kts | 226° |
| 2026-05-07 18:58 | 50.91972 | 10.06041 | 22091 ft | 428 kts | 226° |
| 2026-05-07 18:58 | 50.89891 | 10.02662 | 22091 ft | 428 kts | 226° |
| 2026-05-07 18:59 | 50.87805 | 9.99280 | 22083 ft | 429 kts | 226° |
| 2026-05-07 18:59 | 50.85719 | 9.95905 | 21840 ft | 429 kts | 226° |
| 2026-05-07 18:59 | 50.83631 | 9.92533 | 21561 ft | 426 kts | 226° |
| 2026-05-07 18:59 | 50.81558 | 9.89189 | 21306 ft | 424 kts | 226° |
| 2026-05-07 19:00 | 50.79492 | 9.85860 | 20969 ft | 423 kts | 226° |
| 2026-05-07 19:00 | 50.77427 | 9.82537 | 20598 ft | 423 kts | 226° |
| 2026-05-07 19:00 | 50.75364 | 9.79219 | 20244 ft | 422 kts | 226° |
| 2026-05-07 19:00 | 50.73335 | 9.75962 | 19918 ft | 420 kts | 226° |
| 2026-05-07 19:01 | 50.71285 | 9.72675 | 19560 ft | 419 kts | 226° |
| 2026-05-07 19:01 | 50.69242 | 9.69404 | 19147 ft | 418 kts | 226° |
| 2026-05-07 19:01 | 50.67211 | 9.66156 | 18698 ft | 412 kts | 226° |
| 2026-05-07 19:01 | 50.65203 | 9.62950 | 18263 ft | 407 kts | 226° |
| 2026-05-07 19:02 | 50.63225 | 9.59796 | 17774 ft | 403 kts | 226° |
| 2026-05-07 19:02 | 50.61260 | 9.56667 | 17285 ft | 400 kts | 226° |
| 2026-05-07 19:02 | 50.59311 | 9.53564 | 16822 ft | 398 kts | 226° |
| 2026-05-07 19:02 | 50.57369 | 9.50478 | 16345 ft | 395 kts | 226° |
| 2026-05-07 19:03 | 50.55438 | 9.47414 | 15893 ft | 393 kts | 226° |
| 2026-05-07 19:03 | 50.53511 | 9.44359 | 15423 ft | 392 kts | 226° |
| 2026-05-07 19:03 | 50.51615 | 9.41358 | 14996 ft | 390 kts | 226° |
| 2026-05-07 19:03 | 50.49708 | 9.38341 | 14550 ft | 388 kts | 226° |
| 2026-05-07 19:04 | 50.47810 | 9.35340 | 14113 ft | 387 kts | 226° |
| 2026-05-07 19:04 | 50.45915 | 9.32350 | 13593 ft | 386 kts | 226° |
| 2026-05-07 19:04 | 50.44026 | 9.29374 | 13226 ft | 381 kts | 226° |
| 2026-05-07 19:04 | 50.42260 | 9.26261 | 13081 ft | 381 kts | 234° |
| 2026-05-07 19:05 | 50.40852 | 9.22780 | 13082 ft | 377 kts | 242° |
| 2026-05-07 19:05 | 50.39756 | 9.19054 | 13074 ft | 377 kts | 250° |
| 2026-05-07 19:05 | 50.38873 | 9.15174 | 13075 ft | 377 kts | 251° |
| 2026-05-07 19:05 | 50.37999 | 9.11293 | 13079 ft | 378 kts | 251° |
| 2026-05-07 19:06 | 50.37118 | 9.07412 | 13073 ft | 378 kts | 251° |
| 2026-05-07 19:06 | 50.35334 | 8.99664 | 13025 ft | 378 kts | 250° |
| 2026-05-07 19:06 | 50.34440 | 8.95789 | 12757 ft | 379 kts | 251° |
| 2026-05-07 19:07 | 50.33544 | 8.91916 | 12464 ft | 376 kts | 250° |
| 2026-05-07 19:07 | 50.32656 | 8.88083 | 12176 ft | 373 kts | 250° |
| 2026-05-07 19:07 | 50.31774 | 8.84289 | 11891 ft | 371 kts | 251° |
| 2026-05-07 19:07 | 50.30887 | 8.80484 | 11605 ft | 370 kts | 250° |
| 2026-05-07 19:08 | 50.30016 | 8.76759 | 11347 ft | 368 kts | 250° |
| 2026-05-07 19:08 | 50.29129 | 8.72976 | 11045 ft | 363 kts | 250° |
| 2026-05-07 19:08 | 50.28280 | 8.69360 | 10746 ft | 353 kts | 250° |
| 2026-05-07 19:08 | 50.27444 | 8.65811 | 10431 ft | 343 kts | 250° |
| 2026-05-07 19:09 | 50.26621 | 8.62328 | 10076 ft | 340 kts | 250° |
| 2026-05-07 19:09 | 50.25802 | 8.58865 | 9686 ft | 339 kts | 250° |
| 2026-05-07 19:09 | 50.24985 | 8.55414 | 9287 ft | 337 kts | 250° |
| 2026-05-07 19:09 | 50.24169 | 8.51977 | 8898 ft | 336 kts | 250° |
| 2026-05-07 19:10 | 50.23357 | 8.48559 | 8508 ft | 334 kts | 250° |
| 2026-05-07 19:10 | 50.22557 | 8.45203 | 8098 ft | 321 kts | 250° |
| 2026-05-07 19:10 | 50.21797 | 8.42023 | 7699 ft | 306 kts | 250° |
| 2026-05-07 19:10 | 50.21066 | 8.38970 | 7323 ft | 303 kts | 250° |
| 2026-05-07 19:11 | 50.20330 | 8.35892 | 6952 ft | 302 kts | 250° |
| 2026-05-07 19:11 | 50.19599 | 8.32836 | 6577 ft | 297 kts | 250° |
| 2026-05-07 19:11 | 50.18898 | 8.29912 | 6179 ft | 280 kts | 250° |
| 2026-05-07 19:11 | 50.18228 | 8.27132 | 5758 ft | 268 kts | 250° |
| 2026-05-07 19:12 | 50.17511 | 8.24494 | 5360 ft | 263 kts | 239° |
| 2026-05-07 19:12 | 50.16251 | 8.22537 | 4963 ft | 252 kts | 212° |
| 2026-05-07 19:12 | 50.14713 | 8.21357 | 4567 ft | 241 kts | 204° |
| 2026-05-07 19:12 | 50.13192 | 8.20351 | 4176 ft | 239 kts | 204° |
| 2026-05-07 19:13 | 50.11673 | 8.19352 | 3966 ft | 233 kts | 204° |
| 2026-05-07 19:13 | 50.10180 | 8.18367 | 3979 ft | 234 kts | 204° |
| 2026-05-07 19:13 | 50.08685 | 8.17385 | 3973 ft | 229 kts | 203° |
| 2026-05-07 19:13 | 50.07197 | 8.16823 | 3953 ft | 217 kts | 176° |
| 2026-05-07 19:14 | 50.05796 | 8.17546 | 3969 ft | 212 kts | 148° |
| 2026-05-07 19:14 | 50.04553 | 8.18836 | 3983 ft | 217 kts | 144° |
| 2026-05-07 19:14 | 50.03324 | 8.20207 | 3974 ft | 216 kts | 140° |
| 2026-05-07 19:14 | 50.02447 | 8.21997 | 3968 ft | 212 kts | 107° |
| 2026-05-07 19:15 | 50.02388 | 8.24306 | 3996 ft | 224 kts | 72° |
| 2026-05-07 19:15 | 50.03190 | 8.26378 | 3979 ft | 226 kts | 40° |
| 2026-05-07 19:15 | 50.04586 | 8.27436 | 3979 ft | 226 kts | 7° |
| 2026-05-07 19:15 | 50.06128 | 8.27143 | 3974 ft | 226 kts | 335° |
| 2026-05-07 19:16 | 50.07323 | 8.25587 | 3972 ft | 228 kts | 303° |
| 2026-05-07 19:16 | 50.07794 | 8.23245 | 3974 ft | 231 kts | 271° |
| 2026-05-07 19:16 | 50.07492 | 8.20801 | 3974 ft | 230 kts | 254° |
| 2026-05-07 19:16 | 50.07011 | 8.18412 | 3989 ft | 232 kts | 253° |
| 2026-05-07 19:17 | 50.06520 | 8.15996 | 3984 ft | 235 kts | 253° |
| 2026-05-07 19:17 | 50.06023 | 8.13559 | 3979 ft | 237 kts | 253° |
| 2026-05-07 19:17 | 50.05522 | 8.11118 | 3974 ft | 237 kts | 253° |
| 2026-05-07 19:17 | 50.05026 | 8.08705 | 3973 ft | 237 kts | 253° |
| 2026-05-07 19:18 | 50.04522 | 8.06261 | 3966 ft | 236 kts | 253° |
| 2026-05-07 19:18 | 50.04022 | 8.03836 | 3968 ft | 234 kts | 253° |
| 2026-05-07 19:18 | 50.03524 | 8.01423 | 3964 ft | 233 kts | 253° |
| 2026-05-07 19:18 | 50.02836 | 7.99201 | 3957 ft | 229 kts | 229° |
| 2026-05-07 19:19 | 50.01504 | 7.97828 | 3984 ft | 236 kts | 196° |
| 2026-05-07 19:19 | 49.99871 | 7.97753 | 3981 ft | 238 kts | 165° |
| 2026-05-07 19:19 | 49.98351 | 7.98655 | 3983 ft | 238 kts | 155° |
| 2026-05-07 19:19 | 49.96967 | 7.99949 | 3960 ft | 228 kts | 133° |
| 2026-05-07 19:20 | 49.96185 | 8.02025 | 3971 ft | 221 kts | 105° |
| 2026-05-07 19:20 | 49.95780 | 8.04337 | 3990 ft | 224 kts | 104° |
| 2026-05-07 19:20 | 49.95380 | 8.06660 | 3971 ft | 220 kts | 103° |
| 2026-05-07 19:20 | 49.94998 | 8.08891 | 3953 ft | 208 kts | 103° |
| 2026-05-07 19:21 | 49.94717 | 8.11037 | 3956 ft | 203 kts | 86° |
| 2026-05-07 19:21 | 49.95030 | 8.13163 | 3989 ft | 203 kts | 70° |
| 2026-05-07 19:21 | 49.95464 | 8.15191 | 3999 ft | 191 kts | 69° |
| 2026-05-07 19:21 | 49.95890 | 8.17069 | 3995 ft | 180 kts | 68° |
| 2026-05-07 19:22 | 49.96313 | 8.18860 | 3970 ft | 174 kts | 68° |
| 2026-05-07 19:22 | 49.96736 | 8.20630 | 3978 ft | 176 kts | 68° |
| 2026-05-07 19:22 | 49.97166 | 8.22425 | 3984 ft | 179 kts | 68° |
| 2026-05-07 19:22 | 49.97600 | 8.24231 | 3977 ft | 178 kts | 68° |
| 2026-05-07 19:23 | 49.98036 | 8.26047 | 3760 ft | 178 kts | 68° |
| 2026-05-07 19:23 | 49.98457 | 8.27805 | 3520 ft | 174 kts | 68° |
| 2026-05-07 19:23 | 49.98879 | 8.29561 | 3256 ft | 173 kts | 68° |
| 2026-05-07 19:23 | 49.99299 | 8.31315 | 2992 ft | 173 kts | 68° |
| 2026-05-07 19:24 | 49.99718 | 8.33060 | 2740 ft | 172 kts | 68° |
| 2026-05-07 19:24 | 49.99999 | 8.34232 | 2564 ft | 171 kts | 68° |
| 2026-05-07 19:24 | 50.00413 | 8.35960 | 2334 ft | 170 kts | 68° |
| 2026-05-07 19:24 | 50.00825 | 8.37679 | 2080 ft | 169 kts | 69° |
| 2026-05-07 19:25 | 50.01229 | 8.39365 | 1832 ft | 168 kts | 69° |
| 2026-05-07 19:25 | 50.01635 | 8.41061 | 1591 ft | 167 kts | 69° |
| 2026-05-07 19:25 | 50.02040 | 8.42751 | 1353 ft | 167 kts | 69° |
| 2026-05-07 19:25 | 50.02454 | 8.44445 | 1111 ft | 168 kts | 68° |
| 2026-05-07 19:26 | 50.02864 | 8.46146 | 845 ft | 167 kts | 69° |
| 2026-05-07 19:26 | 50.03269 | 8.47842 | 582 ft | 167 kts | 70° |
| 2026-05-07 19:26 | 50.03646 | 8.49449 | 377 ft | 149 kts | 69° |
| 2026-05-07 19:26 | 50.03980 | 8.50866 | 330 ft | 127 kts | 69° |
| 2026-05-07 19:27 | 50.04176 | 8.51687 | 354 ft | 54 kts | 69° |
| 2026-05-07 19:27 | 50.04237 | 8.52147 | 354 ft | 34 kts | 99° |